Time;durP1;ratioP1;P1;durP2;ratioP2;P2;SDS_P1;SDS_P2;PMS_P1;PMS_P2;Temp;Humidity;BMP_temperature;BMP_pressure;BME280_temperature;BME280_humidity;BME280_pressure;Samples;Min_cycle;Max_cycle;Signal;HPM_P1;HPM_P2
2022/02/24 00:02:06;;;;;;;13.20;4.50;;;;;;;3.19;73.17;96728.94;4820608;29;20584;-80
2022/02/24 00:04:33;;;;;;;11.93;4.18;;;;;;;2.97;73.67;96729.88;4819535;29;20078;-80
2022/02/24 00:07:00;;;;;;;11.15;4.70;;;;;;;2.99;73.61;96719.69;4820877;29;20677;-80
2022/02/24 00:09:27;;;;;;;12.88;4.57;;;;;;;2.96;73.38;96725.56;4820101;29;20054;-80
2022/02/24 00:11:54;;;;;;;13.88;4.65;;;;;;;3.07;72.79;96716.47;4820036;29;20430;-80
2022/02/24 00:14:21;;;;;;;11.13;4.43;;;;;;;3.13;72.72;96709.25;4819100;29;20062;-80
2022/02/24 00:16:48;;;;;;;8.23;4.40;;;;;;;2.85;73.40;96719.31;4818796;29;20058;-80
2022/02/24 00:19:15;;;;;;;14.68;6.32;;;;;;;2.70;74.88;96708.47;4819575;29;20502;-80
2022/02/24 00:21:41;;;;;;;10.95;4.72;;;;;;;2.69;74.90;96696.09;4819303;29;20054;-80
2022/02/24 00:24:09;;;;;;;11.90;4.80;;;;;;;2.62;75.18;96682.06;4819196;29;20635;-79
2022/02/24 00:26:36;;;;;;;9.55;4.60;;;;;;;2.53;75.78;96679.03;4818853;29;20050;-79
2022/02/24 00:29:02;;;;;;;9.23;4.22;;;;;;;2.77;73.41;96692.13;4818497;29;20062;-80
2022/02/24 00:31:29;;;;;;;8.57;4.75;;;;;;;2.53;74.70;96683.63;4819195;29;20133;-80
2022/02/24 00:33:57;;;;;;;13.65;4.97;;;;;;;2.37;75.21;96700.69;4819284;29;20423;-79
2022/02/24 00:36:23;;;;;;;10.20;4.88;;;;;;;2.68;74.21;96713.28;4818397;29;20057;-80
2022/02/24 00:38:50;;;;;;;10.02;4.97;;;;;;;2.77;74.25;96722.50;4819267;29;20688;-79
2022/02/24 00:41:18;;;;;;;8.45;4.28;;;;;;;2.88;73.38;96718.81;4818602;29;20050;-80
2022/02/24 00:43:44;;;;;;;9.90;4.53;;;;;;;2.85;73.00;96721.19;4819168;29;20061;-81
2022/02/24 00:46:11;;;;;;;10.73;4.28;;;;;;;3.00;73.42;96721.28;4818873;29;20054;-80
2022/02/24 00:48:38;;;;;;;12.45;4.50;;;;;;;2.94;72.86;96710.78;4819109;29;20784;-79
2022/02/24 00:51:06;;;;;;;9.38;4.15;;;;;;;3.02;72.85;96721.81;4818482;29;20054;-80
2022/02/24 00:53:32;;;;;;;11.75;4.53;;;;;;;2.75;74.44;96713.06;4819115;29;20054;-79
2022/02/24 00:55:59;;;;;;;12.15;4.60;;;;;;;2.52;74.26;96714.25;4819842;29;20060;-80
2022/02/24 00:58:26;;;;;;;9.57;4.30;;;;;;;2.65;74.29;96710.31;4818593;29;20053;-80
2022/02/24 01:00:53;;;;;;;7.82;4.88;;;;;;;2.61;73.84;96708.16;4819449;29;20068;-80
2022/02/24 01:03:19;;;;;;;13.30;4.93;;;;;;;2.43;74.64;96710.41;4819246;29;20422;-80
2022/02/24 01:05:46;;;;;;;9.43;4.70;;;;;;;2.30;75.60;96704.41;4820951;29;20058;-80
2022/02/24 01:08:14;;;;;;;8.80;4.50;;;;;;;2.18;75.87;96711.81;4822342;29;20058;-80
2022/02/24 01:10:41;;;;;;;12.35;4.63;;;;;;;2.10;76.70;96709.63;4821912;29;20054;-80
2022/02/24 01:13:07;;;;;;;14.18;4.95;;;;;;;2.00;77.04;96706.84;4821849;29;20084;-80
2022/02/24 01:15:38;;;;;;;10.18;5.22;;;;;;;1.95;77.23;96698.72;4820653;29;20046;-80
2022/02/24 01:18:05;;;;;;;8.93;4.65;;;;;;;2.04;77.11;96703.38;4822272;29;20050;-80
2022/02/24 01:20:31;;;;;;;9.20;4.63;;;;;;;2.03;77.66;96690.19;4822281;29;20053;-80
2022/02/24 01:22:58;;;;;;;9.52;4.82;;;;;;;1.99;77.42;96686.41;4822299;29;20073;-79
2022/02/24 01:25:26;;;;;;;10.93;4.30;;;;;;;1.99;77.46;96686.41;4820969;29;20050;-80
2022/02/24 01:27:53;;;;;;;7.90;4.13;;;;;;;1.96;77.64;96682.34;4822620;29;20062;-80
2022/02/24 01:30:19;;;;;;;11.50;4.82;;;;;;;1.92;77.89;96683.13;4821668;29;20111;-79
2022/02/24 01:32:46;;;;;;;10.32;4.35;;;;;;;1.87;78.03;96683.06;4821559;29;20701;-80
2022/02/24 01:35:13;;;;;;;7.32;4.32;;;;;;;1.82;78.54;96679.25;4821721;29;20065;-79
2022/02/24 01:37:39;;;;;;;9.88;4.15;;;;;;;1.82;78.11;96673.09;4821364;29;20058;-79
2022/02/24 01:40:07;;;;;;;9.98;4.38;;;;;;;1.85;78.29;96672.59;4821869;29;20054;-80
2022/02/24 01:42:35;;;;;;;8.98;4.50;;;;;;;1.77;78.00;96681.91;4821149;29;20058;-80
2022/02/24 01:45:02;;;;;;;10.27;3.95;;;;;;;1.73;78.60;96675.44;4822072;29;20065;-81
2022/02/24 01:47:28;;;;;;;8.95;4.15;;;;;;;1.73;78.90;96669.25;4821091;29;20051;-80
2022/02/24 01:49:56;;;;;;;13.23;4.20;;;;;;;1.68;78.92;96669.22;4821980;29;20583;-81
2022/02/24 01:52:23;;;;;;;8.70;3.85;;;;;;;1.72;78.91;96656.88;4821342;29;20637;-80
2022/02/24 01:54:50;;;;;;;10.70;3.75;;;;;;;1.76;78.93;96658.00;4821457;29;20058;-80
2022/02/24 01:57:17;;;;;;;9.23;3.97;;;;;;;1.75;78.82;96648.31;4821406;29;20050;-79
2022/02/24 01:59:46;;;;;;;8.18;3.45;;;;;;;1.99;77.33;96652.31;4820962;29;20054;-80
2022/02/24 02:02:13;;;;;;;6.18;3.20;;;;;;;2.04;76.63;96649.66;4821229;29;20078;-80
2022/02/24 02:04:40;;;;;;;6.60;3.50;;;;;;;1.96;76.91;96646.63;4821019;29;20058;-80
2022/02/24 02:07:07;;;;;;;8.93;3.72;;;;;;;2.02;76.82;96650.97;4819811;29;20054;-80
2022/02/24 02:09:34;;;;;;;8.80;3.60;;;;;;;2.06;76.36;96642.16;4821295;29;20514;-79
2022/02/24 02:12:01;;;;;;;6.57;3.03;;;;;;;1.98;77.68;96652.53;4821190;29;20054;-80
2022/02/24 02:14:27;;;;;;;6.22;3.10;;;;;;;1.95;78.17;96650.38;4821227;29;20065;-79
2022/02/24 02:16:56;;;;;;;5.85;3.05;;;;;;;1.91;79.04;96646.59;4819482;29;20100;-80
2022/02/24 02:19:22;;;;;;;5.40;2.92;;;;;;;2.14;76.97;96643.56;4821414;29;20628;-80
2022/02/24 02:21:50;;;;;;;5.68;3.22;;;;;;;1.97;77.64;96649.06;4821022;29;20054;-80
2022/02/24 02:24:17;;;;;;;6.25;3.00;;;;;;;2.09;76.58;96643.53;4812206;29;20061;-80
2022/02/24 02:26:44;;;;;;;9.70;3.08;;;;;;;2.00;77.48;96642.38;4821728;29;20065;-80
2022/02/24 02:29:12;;;;;;;6.80;3.00;;;;;;;2.20;75.92;96641.72;4821838;29;20054;-80
2022/02/24 02:31:39;;;;;;;5.90;3.00;;;;;;;1.99;76.90;96640.75;4822212;29;20554;-80
2022/02/24 02:34:07;;;;;;;6.97;2.70;;;;;;;2.33;74.87;96634.03;4821505;29;20058;-79
2022/02/24 02:36:35;;;;;;;5.03;2.30;;;;;;;2.26;75.26;96625.38;4821498;29;20065;-79
2022/02/24 02:39:05;;;;;;;6.40;2.95;;;;;;;2.07;76.81;96629.53;4820796;29;20058;-80
2022/02/24 02:41:32;;;;;;;8.02;3.05;;;;;;;1.98;77.71;96629.19;4821569;29;20051;-80
2022/02/24 02:44:00;;;;;;;18.17;3.25;;;;;;;1.90;78.24;96634.22;4820505;29;20062;-80
2022/02/24 02:46:27;;;;;;;5.13;2.80;;;;;;;1.83;78.88;96631.75;4801787;29;20054;-81
2022/02/24 02:48:54;;;;;;;6.40;3.00;;;;;;;1.80;79.44;96627.69;4803069;29;20066;-80
2022/02/24 02:51:20;;;;;;;6.30;2.92;;;;;;;1.97;78.36;96626.75;4802300;29;20055;-80
2022/02/24 02:53:47;;;;;;;4.78;2.60;;;;;;;1.90;78.39;96626.16;4802159;29;20514;-79
2022/02/24 02:56:16;;;;;;;10.32;3.00;;;;;;;1.79;78.79;96631.44;4802376;29;20123;-80
2022/02/24 02:58:42;;;;;;;4.75;2.78;;;;;;;1.73;79.53;96626.31;4802387;29;20070;-79
2022/02/24 03:01:09;;;;;;;6.82;2.78;;;;;;;1.66;79.28;96626.50;4801862;29;20066;-79
2022/02/24 03:03:35;;;;;;;7.22;3.03;;;;;;;1.66;79.56;96623.00;4802907;29;20054;-79
2022/02/24 03:06:02;;;;;;;5.20;2.90;;;;;;;1.64;80.05;96620.56;4801971;29;20534;-80
2022/02/24 03:08:29;;;;;;;8.00;3.40;;;;;;;1.66;80.06;96615.75;4803157;29;20046;-80
2022/02/24 03:10:55;;;;;;;5.93;3.05;;;;;;;1.69;80.11;96620.63;4802291;29;20062;-80
2022/02/24 03:13:23;;;;;;;6.65;2.78;;;;;;;1.70;80.26;96614.19;4802179;29;20069;-80
2022/02/24 03:15:51;;;;;;;6.55;3.00;;;;;;;1.70;80.13;96611.50;4814916;29;20054;-80
2022/02/24 03:18:18;;;;;;;7.80;3.35;;;;;;;1.70;80.79;96618.75;4802343;29;20058;-81
2022/02/24 03:20:44;;;;;;;6.35;2.90;;;;;;;1.62;80.78;96609.28;4801890;29;20738;-79
2022/02/24 03:23:12;;;;;;;6.45;3.35;;;;;;;1.65;80.89;96614.13;4801598;29;20506;-80
2022/02/24 03:25:38;;;;;;;4.38;2.92;;;;;;;1.68;80.79;96608.28;4802082;29;20055;-80
2022/02/24 03:28:06;;;;;;;7.68;3.35;;;;;;;1.64;81.09;96607.16;4800023;29;20057;-80
2022/02/24 03:30:35;;;;;;;6.35;2.80;;;;;;;1.69;80.47;96603.72;4802572;29;20051;-80
2022/02/24 03:33:01;;;;;;;7.38;3.00;;;;;;;1.68;80.43;96597.53;4801896;29;20513;-81
2022/02/24 03:35:28;;;;;;;6.47;3.05;;;;;;;1.68;80.96;96586.00;4802351;29;20062;-80
2022/02/24 03:37:55;;;;;;;9.15;2.90;;;;;;;1.72;80.67;96581.69;4802004;29;20069;-79
2022/02/24 03:40:22;;;;;;;5.22;3.25;;;;;;;1.69;80.09;96588.41;4801681;29;20055;-80
2022/02/24 03:42:49;;;;;;;6.80;2.70;;;;;;;1.68;80.28;96578.75;4802256;29;20142;-80
2022/02/24 03:45:16;;;;;;;4.82;3.10;;;;;;;1.65;80.64;96587.28;4799443;29;20054;-80
2022/02/24 03:47:44;;;;;;;4.95;3.13;;;;;;;1.63;80.76;96583.25;4802683;29;20050;-80
2022/02/24 03:50:13;;;;;;;6.60;3.20;;;;;;;1.55;80.99;96574.59;4802198;29;20062;-80
2022/02/24 03:52:39;;;;;;;6.43;2.95;;;;;;;1.51;81.37;96573.50;4817032;29;20074;-80
2022/02/24 03:55:07;;;;;;;5.53;2.70;;;;;;;1.50;81.38;96571.84;4801566;29;20057;-80
2022/02/24 03:57:34;;;;;;;8.18;3.00;;;;;;;1.46;80.83;96572.63;4802911;29;20053;-79
2022/02/24 04:00:01;;;;;;;6.13;2.90;;;;;;;1.49;81.04;96561.38;4799584;29;20589;-80
2022/02/24 04:02:27;;;;;;;4.72;2.63;;;;;;;1.48;81.55;96560.59;4809108;29;20062;-79
2022/02/24 04:04:55;;;;;;;6.05;3.03;;;;;;;1.46;81.60;96564.56;4811985;29;20066;-80
2022/02/24 04:07:23;;;;;;;7.05;3.60;;;;;;;1.45;81.53;96562.97;4820512;29;20065;-80
2022/02/24 04:09:50;;;;;;;6.10;3.03;;;;;;;1.46;81.85;96561.88;4821690;29;20082;-80
2022/02/24 04:12:16;;;;;;;6.93;3.03;;;;;;;1.44;81.43;96551.41;4820623;29;20502;-80
2022/02/24 04:14:43;;;;;;;6.43;3.25;;;;;;;1.46;81.50;96557.34;4821636;29;20550;-80
2022/02/24 04:17:10;;;;;;;4.22;2.53;;;;;;;1.63;81.05;96543.81;4820207;29;20093;-79
2022/02/24 04:19:36;;;;;;;5.00;2.60;;;;;;;1.97;79.15;96541.63;4821126;29;20062;-80
2022/02/24 04:22:05;;;;;;;4.22;2.78;;;;;;;1.81;79.15;96554.13;4819734;29;20054;-80
2022/02/24 04:24:32;;;;;;;7.13;3.40;;;;;;;1.72;79.69;96547.63;4821133;29;20057;-80
2022/02/24 04:26:59;;;;;;;6.43;2.85;;;;;;;1.90;78.94;96546.41;4820552;29;20084;-80
2022/02/24 04:29:25;;;;;;;5.65;2.60;;;;;;;2.18;77.35;96539.88;4820899;29;20050;-80
2022/02/24 04:31:52;;;;;;;3.88;2.40;;;;;;;2.20;76.70;96529.69;4821180;29;20076;-79
2022/02/24 04:34:18;;;;;;;5.28;2.22;;;;;;;2.24;75.92;96530.78;4820810;29;20050;-80
2022/02/24 04:36:45;;;;;;;5.90;2.78;;;;;;;2.13;76.23;96529.09;4821849;29;20521;-79
2022/02/24 04:39:13;;;;;;;5.15;2.65;;;;;;;2.09;76.86;96531.50;4821301;29;20062;-79
2022/02/24 04:41:40;;;;;;;7.18;2.97;;;;;;;1.97;77.27;96530.88;4825945;29;20134;-79
2022/02/24 04:44:06;;;;;;;5.40;2.88;;;;;;;1.85;78.33;96537.53;4824905;29;20085;-79
2022/02/24 04:46:33;;;;;;;6.28;2.85;;;;;;;1.73;79.59;96527.78;4825673;29;20050;-79
2022/02/24 04:48:59;;;;;;;8.27;4.70;;;;;;;1.65;80.69;96522.88;4824311;29;20057;-79
2022/02/24 04:51:26;;;;;;;5.00;2.72;;;;;;;1.59;80.94;96526.59;4824341;29;20061;-80
2022/02/24 04:53:53;;;;;;;12.77;3.28;;;;;;;1.54;81.35;96526.53;4825255;29;20506;-80
2022/02/24 04:56:21;;;;;;;4.65;2.42;;;;;;;1.53;81.87;96524.94;4823383;29;20062;-79
2022/02/24 04:58:48;;;;;;;6.38;3.20;;;;;;;1.51;82.10;96522.50;4824151;29;20056;-80
2022/02/24 05:01:14;;;;;;;6.65;2.88;;;;;;;1.48;82.38;96512.28;4822743;29;20062;-80
2022/02/24 05:03:41;;;;;;;7.05;3.42;;;;;;;1.48;82.21;96508.78;4823519;29;20054;-79
2022/02/24 05:06:07;;;;;;;4.40;2.83;;;;;;;1.50;82.43;96509.31;4822702;29;20410;-80
2022/02/24 05:08:35;;;;;;;6.28;2.90;;;;;;;1.46;82.36;96509.06;4824333;29;20054;-81
2022/02/24 05:11:01;;;;;;;9.25;3.03;;;;;;;1.42;82.65;96507.13;4823023;29;20057;-80
2022/02/24 05:13:29;;;;;;;5.38;3.03;;;;;;;1.45;83.02;96511.97;4822786;29;20046;-80
2022/02/24 05:15:56;;;;;;;4.50;3.05;;;;;;;1.46;83.14;96509.06;4804944;29;20059;-80
2022/02/24 05:18:22;;;;;;;5.10;2.78;;;;;;;1.47;82.88;96504.50;4804750;29;20078;-80
2022/02/24 05:20:49;;;;;;;6.95;3.03;;;;;;;1.49;82.89;96505.84;4803527;29;20099;-80
2022/02/24 05:23:15;;;;;;;5.85;2.65;;;;;;;1.48;83.44;96506.09;4804012;29;20047;-80
2022/02/24 05:25:42;;;;;;;5.65;2.60;;;;;;;1.48;83.58;96504.22;4805047;29;20056;-80
2022/02/24 05:28:11;;;;;;;6.45;2.95;;;;;;;1.49;83.32;96492.41;4803895;29;20054;-79
2022/02/24 05:30:39;;;;;;;7.28;2.97;;;;;;;1.52;83.72;96499.16;4804981;29;20058;-80
2022/02/24 05:33:09;;;;;;;7.30;2.70;;;;;;;1.52;83.56;96493.78;4817669;29;20438;-81
2022/02/24 05:35:35;;;;;;;5.57;2.70;;;;;;;1.57;83.49;96491.16;4804964;29;20055;-79
2022/02/24 05:38:02;;;;;;;5.30;2.50;;;;;;;1.62;83.66;96484.97;4802434;29;20104;-80
2022/02/24 05:40:29;;;;;;;4.18;2.60;;;;;;;1.58;83.75;96492.75;4804049;29;20043;-80
2022/02/24 05:42:57;;;;;;;5.43;2.75;;;;;;;1.59;83.77;96480.97;4804086;29;20143;-79
2022/02/24 05:45:24;;;;;;;3.70;2.35;;;;;;;1.57;83.94;96480.41;4821028;29;20084;-80
2022/02/24 05:47:52;;;;;;;5.85;2.75;;;;;;;1.60;83.80;96482.56;4821836;29;20058;-80
2022/02/24 05:50:18;;;;;;;4.82;3.08;;;;;;;1.62;83.82;96480.47;4821554;29;20057;-79
2022/02/24 05:52:45;;;;;;;6.30;2.38;;;;;;;1.62;83.82;96479.63;4822494;29;20050;-80
2022/02/24 05:55:12;;;;;;;5.55;1.80;;;;;;;1.66;83.75;96476.16;4821415;29;20054;-80
2022/02/24 05:57:39;;;;;;;7.32;2.50;;;;;;;1.67;83.64;96472.44;4822706;29;20063;-79
2022/02/24 06:00:06;;;;;;;4.57;2.22;;;;;;;1.72;83.43;96469.78;4821968;29;20067;-80
2022/02/24 06:02:33;;;;;;;5.32;2.10;;;;;;;1.74;83.60;96478.38;4823336;29;20130;-79
2022/02/24 06:05:01;;;;;;;4.38;2.10;;;;;;;1.77;83.56;96472.47;4821755;29;20062;-80
2022/02/24 06:07:28;;;;;;;4.03;2.00;;;;;;;1.85;83.61;96468.50;4822509;29;20057;-81
2022/02/24 06:09:54;;;;;;;4.05;2.10;;;;;;;1.87;83.35;96470.94;4824574;29;20532;-80
2022/02/24 06:12:21;;;;;;;5.15;2.13;;;;;;;1.87;83.93;96471.72;4820890;29;20050;-80
2022/02/24 06:14:48;;;;;;;7.30;2.42;;;;;;;1.94;83.83;96466.16;4822688;29;20058;-80
2022/02/24 06:17:14;;;;;;;3.75;1.75;;;;;;;1.97;83.75;96468.31;4823842;29;20061;-81
2022/02/24 06:19:42;;;;;;;4.13;1.98;;;;;;;1.97;84.17;96471.00;4823605;29;20074;-81
2022/02/24 06:22:11;;;;;;;5.07;2.13;;;;;;;1.98;84.10;96470.72;4822560;29;20100;-81
2022/02/24 06:24:37;;;;;;;4.50;2.03;;;;;;;2.03;84.53;96475.31;4832451;29;20067;-81
2022/02/24 06:27:04;;;;;;;4.25;1.95;;;;;;;2.06;84.44;96474.81;4822409;29;20054;-81
2022/02/24 06:29:31;;;;;;;5.95;2.10;;;;;;;2.09;84.09;96464.34;4822900;29;20050;-80
2022/02/24 06:31:57;;;;;;;8.32;2.45;;;;;;;2.22;83.66;96457.69;4822953;29;20050;-80
2022/02/24 06:34:24;;;;;;;3.25;1.90;;;;;;;2.28;83.20;96456.63;4822226;29;20055;-80
2022/02/24 06:36:50;;;;;;;4.63;1.70;;;;;;;2.32;83.36;96463.09;4822248;29;20065;-80
2022/02/24 06:39:18;;;;;;;3.55;1.70;;;;;;;2.38;82.77;96452.38;4820657;29;20046;-80
2022/02/24 06:41:46;;;;;;;3.55;1.80;;;;;;;2.50;83.16;96453.75;4821278;29;20065;-80
2022/02/24 06:44:14;;;;;;;3.70;1.70;;;;;;;2.57;82.69;96465.09;4821332;29;20050;-81
2022/02/24 06:46:40;;;;;;;3.80;1.60;;;;;;;2.69;82.01;96462.16;4821927;29;20054;-81
2022/02/24 06:49:07;;;;;;;8.07;1.90;;;;;;;2.81;82.00;96459.22;4818823;29;20053;-81
2022/02/24 06:51:34;;;;;;;5.45;1.80;;;;;;;2.87;82.28;96452.78;4827736;29;20482;-81
2022/02/24 06:54:00;;;;;;;3.15;1.70;;;;;;;2.97;81.61;96450.09;4821282;29;20059;-81
2022/02/24 06:56:28;;;;;;;4.30;2.22;;;;;;;3.05;80.63;96448.78;4820106;29;20046;-80
2022/02/24 06:58:55;;;;;;;5.13;1.95;;;;;;;3.11;79.65;96450.41;4804629;29;20058;-80
2022/02/24 07:01:22;;;;;;;8.93;2.10;;;;;;;3.17;79.62;96446.63;4803365;29;20054;-81
2022/02/24 07:03:49;;;;;;;5.88;2.25;;;;;;;3.26;80.19;96445.03;4819241;29;20062;-81
2022/02/24 07:06:16;;;;;;;3.50;1.98;;;;;;;3.37;80.24;96440.44;4818209;29;20116;-80
2022/02/24 07:08:42;;;;;;;3.10;1.70;;;;;;;3.53;79.10;96446.63;4820992;29;20910;-80
2022/02/24 07:11:09;;;;;;;11.00;2.55;;;;;;;3.73;78.37;96446.59;4819720;29;20062;-81
2022/02/24 07:13:37;;;;;;;2.65;1.60;;;;;;;3.97;76.96;96444.16;4809583;29;20050;-80
2022/02/24 07:16:05;;;;;;;6.00;1.70;;;;;;;4.01;76.91;96449.78;4801717;29;20055;-80
2022/02/24 07:18:32;;;;;;;3.20;1.70;;;;;;;4.12;75.88;96451.34;4802621;29;20138;-80
2022/02/24 07:20:58;;;;;;;12.35;1.85;;;;;;;4.23;76.24;96447.56;4786530;29;20054;-80
2022/02/24 07:23:25;;;;;;;2.78;1.45;;;;;;;4.32;74.79;96445.09;4801656;29;20042;-80
2022/02/24 07:25:53;;;;;;;3.10;1.25;;;;;;;4.32;75.17;96451.28;4788518;29;20511;-81
2022/02/24 07:28:20;;;;;;;3.38;1.60;;;;;;;4.33;74.47;96447.53;4782663;29;20055;-81
2022/02/24 07:30:48;;;;;;;3.63;1.70;;;;;;;4.39;75.88;96440.25;4786589;29;20069;-81
2022/02/24 07:33:15;;;;;;;2.15;1.38;;;;;;;4.53;75.66;96440.44;4784699;29;20059;-80
2022/02/24 07:35:42;;;;;;;3.35;1.80;;;;;;;4.65;75.15;96433.63;4780464;29;20092;-80
2022/02/24 07:38:09;;;;;;;4.47;1.52;;;;;;;4.72;75.28;96428.72;4792606;29;20063;-82
2022/02/24 07:40:36;;;;;;;4.60;1.60;;;;;;;4.71;76.10;96423.63;4784195;29;20067;-80
2022/02/24 07:43:03;;;;;;;2.83;1.50;;;;;;;4.76;76.06;96433.59;4783677;29;20050;-81
2022/02/24 07:45:29;;;;;;;4.32;1.50;;;;;;;4.77;75.13;96422.50;4800979;29;20061;-81
2022/02/24 07:47:57;;;;;;;4.03;1.60;;;;;;;4.89;73.43;96417.56;4801476;29;20050;-81
2022/02/24 07:50:24;;;;;;;7.90;1.90;;;;;;;4.97;74.44;96429.66;4814573;29;20837;-81
2022/02/24 07:52:50;;;;;;;6.97;1.55;;;;;;;5.07;74.50;96418.00;4800784;29;20055;-81
2022/02/24 07:55:18;;;;;;;4.70;1.70;;;;;;;5.15;73.14;96415.50;4800832;29;20582;-80
2022/02/24 07:57:45;;;;;;;6.05;1.73;;;;;;;5.25;73.20;96414.59;4801864;29;20063;-81
2022/02/24 08:00:14;;;;;;;3.58;1.90;;;;;;;5.37;73.43;96411.53;4800908;29;20141;-81
2022/02/24 08:02:41;;;;;;;4.32;1.58;;;;;;;5.44;71.67;96412.84;4800653;29;20104;-81
2022/02/24 08:05:10;;;;;;;3.47;1.60;;;;;;;5.58;73.50;96420.25;4814967;29;20050;-81
2022/02/24 08:07:38;;;;;;;4.13;1.60;;;;;;;5.61;74.02;96414.31;4801164;29;20066;-80
2022/02/24 08:10:07;;;;;;;4.60;1.80;;;;;;;5.75;70.74;96412.56;4802063;29;20059;-81
2022/02/24 08:12:47;;;;;;;3.22;1.73;;;;;;;5.81;70.46;96416.81;4802034;29;20059;-82
2022/02/24 08:15:15;;;;;;;3.95;1.83;;;;;;;5.95;70.27;96417.78;4800772;29;20136;-81
2022/02/24 08:17:43;;;;;;;3.97;2.00;;;;;;;6.07;69.90;96413.88;4801658;29;20478;-80
2022/02/24 08:20:12;;;;;;;3.80;1.70;;;;;;;6.18;69.12;96410.75;4799979;29;20051;-80
2022/02/24 08:22:41;;;;;;;2.60;1.60;;;;;;;6.28;68.42;96409.84;4798844;29;20058;-81
2022/02/24 08:25:11;;;;;;;6.68;1.98;;;;;;;6.46;70.03;96406.34;4800537;29;20073;-81
2022/02/24 08:27:39;;;;;;;6.10;2.15;;;;;;;6.56;69.01;96400.00;4815532;29;20116;-81
2022/02/24 08:30:09;;;;;;;7.13;1.80;;;;;;;6.64;69.32;96395.88;4801285;29;20518;-81
2022/02/24 08:32:36;;;;;;;3.75;1.80;;;;;;;6.74;68.32;96388.41;4801748;29;20088;-82
2022/02/24 08:35:03;;;;;;;6.97;2.20;;;;;;;6.95;68.34;96383.50;4799934;29;20055;-81
2022/02/24 08:37:31;;;;;;;5.97;1.80;;;;;;;7.08;65.59;96392.78;4801459;29;20651;-81
2022/02/24 08:39:58;;;;;;;4.65;1.65;;;;;;;7.33;66.24;96389.66;4798358;29;20172;-80
2022/02/24 08:42:25;;;;;;;4.63;1.60;;;;;;;7.59;65.21;96395.47;4808644;29;20051;-80
2022/02/24 08:44:53;;;;;;;4.45;1.80;;;;;;;7.95;63.49;96389.41;4800866;29;20146;-81
2022/02/24 08:47:20;;;;;;;3.42;1.70;;;;;;;8.07;64.46;96394.31;4800059;29;20765;-81
2022/02/24 08:49:47;;;;;;;3.13;1.55;;;;;;;8.16;64.08;96391.72;4800332;29;20050;-81
2022/02/24 08:52:15;;;;;;;5.20;1.55;;;;;;;8.28;63.48;96387.38;4808689;29;20142;-80
2022/02/24 08:54:44;;;;;;;3.70;1.40;;;;;;;8.49;62.83;96382.38;4809866;29;20055;-81
2022/02/24 08:57:11;;;;;;;3.85;1.38;;;;;;;8.69;59.31;96373.00;4810524;29;20067;-81
2022/02/24 08:59:40;;;;;;;3.25;1.52;;;;;;;8.93;59.77;96378.19;4812300;29;20047;-81
2022/02/24 09:02:06;;;;;;;2.88;1.55;;;;;;;9.12;57.11;96364.41;4809410;29;20090;-82
2022/02/24 09:04:33;;;;;;;2.53;1.60;;;;;;;9.28;57.19;96356.69;4818560;29;20057;-81
2022/02/24 09:06:59;;;;;;;3.67;1.70;;;;;;;9.33;56.82;96360.09;4826977;29;20055;-81
2022/02/24 09:09:26;;;;;;;3.53;1.60;;;;;;;9.57;55.83;96359.78;4814676;29;20065;-80
2022/02/24 09:11:54;;;;;;;1.85;1.35;;;;;;;9.59;55.91;96354.81;4821917;29;20058;-82
2022/02/24 09:14:21;;;;;;;3.95;1.20;;;;;;;10.01;56.66;96349.88;4818172;29;20446;-81
2022/02/24 09:16:48;;;;;;;2.28;1.23;;;;;;;10.38;54.00;96354.03;4820761;29;20058;-82
2022/02/24 09:19:15;;;;;;;1.95;1.00;;;;;;;10.16;51.28;96351.38;4819796;29;20231;-81
2022/02/24 09:21:42;;;;;;;1.75;1.10;;;;;;;10.16;52.44;96354.91;4821310;29;20054;-81
2022/02/24 09:24:09;;;;;;;4.63;1.10;;;;;;;10.22;53.49;96349.31;4820659;29;20059;-82
2022/02/24 09:26:36;;;;;;;2.67;1.55;;;;;;;10.32;52.96;96349.06;4820758;29;20062;-80
2022/02/24 09:29:05;;;;;;;3.15;1.42;;;;;;;10.48;53.93;96350.22;4804608;29;20058;-80
2022/02/24 09:31:32;;;;;;;3.30;1.45;;;;;;;10.54;53.39;96343.50;4823489;29;20446;-81
2022/02/24 09:33:59;;;;;;;1.45;0.93;;;;;;;10.71;51.33;96337.31;4822465;29;20050;-81
2022/02/24 09:36:26;;;;;;;3.08;1.27;;;;;;;10.38;51.84;96335.00;4822189;29;20093;-81
2022/02/24 09:38:52;;;;;;;1.85;1.38;;;;;;;10.44;52.70;96327.50;4822857;29;20437;-80
2022/02/24 09:41:23;;;;;;;3.90;1.40;;;;;;;10.15;52.17;96326.09;4804693;29;20137;-81
2022/02/24 09:43:50;;;;;;;4.40;1.42;;;;;;;10.37;53.26;96322.50;4821057;29;20050;-80
2022/02/24 09:46:19;;;;;;;4.47;1.55;;;;;;;10.69;52.75;96318.53;4790732;29;20090;-80
2022/02/24 09:48:46;;;;;;;5.55;1.88;;;;;;;11.56;53.88;96323.94;4806762;29;20057;-80
2022/02/24 09:51:15;;;;;;;5.03;1.77;;;;;;;11.96;50.00;96321.75;4821478;29;20474;-80
2022/02/24 09:53:43;;;;;;;3.28;1.33;;;;;;;12.33;48.48;96318.53;4806727;29;20649;-80
2022/02/24 09:56:15;;;;;;;2.28;1.27;;;;;;;12.52;49.16;96311.47;4822182;29;20066;-81
2022/02/24 09:58:41;;;;;;;3.00;1.30;;;;;;;13.06;47.78;96318.97;4822505;29;20073;-81
2022/02/24 10:01:12;;;;;;;3.10;1.30;;;;;;;13.09;46.58;96318.28;4821496;29;20096;-81
2022/02/24 10:03:41;;;;;;;2.38;1.27;;;;;;;13.52;45.92;96319.84;4821657;29;20059;-82
2022/02/24 10:06:09;;;;;;;3.83;1.55;;;;;;;14.17;46.50;96318.16;4822846;29;20533;-81
2022/02/24 10:08:37;;;;;;;2.40;1.45;;;;;;;14.74;44.76;96309.00;4822309;29;20057;-81
2022/02/24 10:11:17;;;;;;;3.17;1.50;;;;;;;14.66;44.25;96311.84;4823662;29;20058;-82
2022/02/24 10:13:56;;;;;;;4.45;1.40;;;;;;;15.04;41.60;96305.97;4823999;29;20088;-80
2022/02/24 10:16:23;;;;;;;3.00;1.50;;;;;;;15.12;41.94;96302.25;4821376;29;20064;-81
2022/02/24 10:18:52;;;;;;;3.22;1.45;;;;;;;15.00;42.76;96302.31;4822478;29;20122;-81
2022/02/24 10:21:20;;;;;;;3.53;1.38;;;;;;;14.60;43.58;96292.13;4820985;29;20062;-81
2022/02/24 10:23:48;;;;;;;5.85;1.75;;;;;;;14.77;42.92;96291.88;4820958;29;20051;-81
2022/02/24 10:26:16;;;;;;;7.45;1.65;;;;;;;15.03;43.86;96290.63;4811841;29;20065;-80
2022/02/24 10:28:46;;;;;;;2.22;1.40;;;;;;;13.84;44.88;96282.66;4821489;29;20506;-81
2022/02/24 10:31:15;;;;;;;1.67;1.10;;;;;;;14.01;45.13;96268.75;4820375;29;20588;-81
2022/02/24 10:33:44;;;;;;;3.42;1.30;;;;;;;14.02;44.11;96272.28;4821808;29;20061;-80
2022/02/24 10:36:15;;;;;;;2.85;1.30;;;;;;;14.27;44.22;96262.91;4820912;29;20054;-81
2022/02/24 10:38:45;;;;;;;3.40;1.13;;;;;;;14.31;45.12;96269.31;4804943;29;20138;-80
2022/02/24 10:41:13;;;;;;;2.85;1.08;;;;;;;14.88;46.97;96275.75;4821043;29;20498;-81
2022/02/24 10:43:40;;;;;;;3.42;1.40;;;;;;;14.92;44.59;96275.81;4821291;29;20196;-81
2022/02/24 10:46:13;;;;;;;5.47;1.60;;;;;;;14.68;45.02;96268.47;4820948;29;20062;-81
2022/02/24 10:48:51;;;;;;;2.38;1.17;;;;;;;14.72;43.44;96261.97;4820754;29;20050;-81
2022/02/24 10:51:24;;;;;;;2.88;1.10;;;;;;;14.72;42.23;96250.19;4809483;29;20057;-81
2022/02/24 10:54:02;;;;;;;2.92;1.50;;;;;;;14.64;42.87;96249.19;4820482;29;20486;-82
2022/02/24 10:56:29;;;;;;;2.58;1.05;;;;;;;15.30;40.70;96237.75;4812368;29;20125;-81
2022/02/24 10:58:56;;;;;;;1.55;0.90;;;;;;;15.50;40.58;96240.56;4820586;29;20054;-80
2022/02/24 11:01:24;;;;;;;1.88;0.90;;;;;;;15.65;40.55;96237.88;4820396;29;20239;-81
2022/02/24 11:03:52;;;;;;;2.45;1.00;;;;;;;16.05;40.64;96233.38;4821601;29;20081;-82
2022/02/24 11:06:22;;;;;;;1.50;0.98;;;;;;;15.59;38.63;96230.22;4820699;29;20073;-81
2022/02/24 11:08:51;;;;;;;2.80;1.00;;;;;;;15.76;41.04;96227.16;4812721;29;20054;-82
2022/02/24 11:11:21;;;;;;;2.92;0.90;;;;;;;15.55;37.87;96216.41;4820498;29;20486;-81
2022/02/24 11:13:48;;;;;;;1.42;1.00;;;;;;;15.29;38.24;96213.38;4820999;29;20544;-81
2022/02/24 11:16:15;;;;;;;3.28;1.05;;;;;;;15.59;39.75;96205.53;4822453;29;20085;-82
2022/02/24 11:18:43;;;;;;;1.20;0.82;;;;;;;15.27;37.23;96204.72;4822352;29;20062;-81
2022/02/24 11:21:13;;;;;;;1.38;0.82;;;;;;;15.34;36.82;96191.97;4821275;29;20064;-81
2022/02/24 11:23:41;;;;;;;2.25;0.90;;;;;;;15.40;37.18;96195.28;4822823;29;20763;-82
2022/02/24 11:26:31;;;;;;;2.47;1.00;;;;;;;14.66;38.33;96194.00;4820812;29;20094;-81
2022/02/24 11:29:06;;;;;;;3.30;1.00;;;;;;;14.60;38.53;96188.78;4820766;29;20149;-80
2022/02/24 11:31:44;;;;;;;1.23;0.70;;;;;;;14.51;40.84;96177.19;4820607;29;20089;-81
2022/02/24 11:34:10;;;;;;;4.32;1.45;;;;;;;13.83;39.34;96177.84;4819210;29;20057;-80
2022/02/24 11:36:41;;;;;;;2.63;1.10;;;;;;;13.46;40.63;96173.50;4819774;29;20054;-81
2022/02/24 11:39:20;;;;;;;4.47;1.48;;;;;;;13.66;41.45;96167.13;4820529;29;20051;-80
2022/02/24 11:41:57;;;;;;;7.85;1.50;;;;;;;13.91;41.02;96161.63;4820353;29;20058;-80